Time;durP1;ratioP1;P1;durP2;ratioP2;P2;SDS_P1;SDS_P2;PMS_P1;PMS_P2;Temp;Humidity;BMP_temperature;BMP_pressure;BME280_temperature;BME280_humidity;BME280_pressure;Samples;Min_cycle;Max_cycle;Signal;HPM_P1;HPM_P2
2021/12/28 00:02:06;;;;;;;7.43;6.75;;;;;;;;;;4947924;29;20210;-82
2021/12/28 00:04:35;;;;;;;6.45;5.75;;;;;;;;;;4936908;29;20272;-83
2021/12/28 00:07:02;;;;;;;5.35;4.85;;;;;;;;;;4936589;29;20213;-82
2021/12/28 00:09:30;;;;;;;5.55;5.13;;;;;;;;;;4936442;29;20213;-82
2021/12/28 00:11:58;;;;;;;6.05;5.45;;;;;;;;;;4937224;29;20190;-82
2021/12/28 00:14:34;;;;;;;6.25;5.38;;;;;;;;;;4936543;29;20722;-82
2021/12/28 00:19:47;;;;;;;7.18;6.47;;;;;;;;;;4945870;29;20674;-82
2021/12/28 00:22:15;;;;;;;7.13;6.45;;;;;;;;;;4955704;29;20201;-82
2021/12/28 00:24:43;;;;;;;6.88;5.68;;;;;;;;;;4955520;29;20241;-83
2021/12/28 00:27:10;;;;;;;7.70;7.00;;;;;;;;;;4955585;29;20244;-82
2021/12/28 00:29:38;;;;;;;7.72;6.80;;;;;;;;;;4956099;29;20205;-81
2021/12/28 00:32:06;;;;;;;7.15;5.70;;;;;;;;;;4955467;29;20201;-82
2021/12/28 00:34:34;;;;;;;7.57;6.88;;;;;;;;;;4955156;29;20699;-82
2021/12/28 00:37:04;;;;;;;7.03;6.32;;;;;;;;;;4955741;29;20193;-82
2021/12/28 00:39:31;;;;;;;5.80;5.18;;;;;;;;;;4955338;29;20197;-82
2021/12/28 00:41:59;;;;;;;7.20;6.50;;;;;;;;;;4955473;29;20189;-83
2021/12/28 00:44:26;;;;;;;7.22;6.53;;;;;;;;;;4956735;28;20633;-82
2021/12/28 00:46:53;;;;;;;6.65;5.95;;;;;;;;;;4958697;29;20208;-82
2021/12/28 00:49:21;;;;;;;7.30;6.60;;;;;;;;;;4959409;28;20201;-83
2021/12/28 00:51:50;;;;;;;5.25;4.80;;;;;;;;;;4958911;29;20212;-82
2021/12/28 00:54:19;;;;;;;5.20;4.70;;;;;;;;;;4959250;29;20667;-81
2021/12/28 00:56:46;;;;;;;5.85;5.35;;;;;;;;;;4959402;29;20185;-81
2021/12/28 00:59:13;;;;;;;5.15;4.65;;;;;;;;;;4958676;29;20872;-82
2021/12/28 01:01:41;;;;;;;4.75;4.30;;;;;;;;;;4958244;29;20212;-83
2021/12/28 01:04:08;;;;;;;6.05;5.55;;;;;;;;;;4959464;29;20217;-83
2021/12/28 01:06:36;;;;;;;5.18;4.78;;;;;;;;;;4959020;29;20189;-83
2021/12/28 01:09:04;;;;;;;4.72;4.22;;;;;;;;;;4956111;29;20202;-82
2021/12/28 01:11:32;;;;;;;4.75;4.32;;;;;;;;;;4940370;29;20283;-82
2021/12/28 01:14:00;;;;;;;4.07;3.67;;;;;;;;;;4952666;29;20232;-82
2021/12/28 01:16:27;;;;;;;3.45;3.15;;;;;;;;;;4959409;29;20205;-82
2021/12/28 01:18:56;;;;;;;3.33;3.03;;;;;;;;;;4959361;29;20189;-83
2021/12/28 01:21:23;;;;;;;3.50;3.25;;;;;;;;;;4959096;29;20535;-82
2021/12/28 01:23:51;;;;;;;3.38;3.08;;;;;;;;;;4946770;29;20746;-82
2021/12/28 01:26:18;;;;;;;3.00;2.80;;;;;;;;;;4939741;29;20213;-82
2021/12/28 01:28:47;;;;;;;2.80;2.47;;;;;;;;;;4939303;29;20210;-82
2021/12/28 01:31:14;;;;;;;3.10;2.80;;;;;;;;;;4940014;29;20186;-82
2021/12/28 01:33:42;;;;;;;2.83;2.63;;;;;;;;;;4939762;29;20201;-82
2021/12/28 01:36:09;;;;;;;2.83;2.50;;;;;;;;;;4939991;29;20213;-82
2021/12/28 01:38:37;;;;;;;3.28;2.97;;;;;;;;;;4939625;29;20197;-83
2021/12/28 01:41:06;;;;;;;2.78;2.58;;;;;;;;;;4939695;29;20206;-82
2021/12/28 01:43:33;;;;;;;3.78;3.45;;;;;;;;;;4939852;29;20550;-82
2021/12/28 01:46:02;;;;;;;3.47;3.17;;;;;;;;;;4939385;29;20201;-82
2021/12/28 01:48:33;;;;;;;3.15;2.95;;;;;;;;;;4939983;29;20196;-82
2021/12/28 01:51:04;;;;;;;3.08;2.88;;;;;;;;;;4939594;29;20182;-82
2021/12/28 01:53:32;;;;;;;2.92;2.72;;;;;;;;;;4939094;29;20206;-82
2021/12/28 01:56:03;;;;;;;2.30;2.20;;;;;;;;;;4947738;29;20296;-82
2021/12/28 01:58:31;;;;;;;2.65;2.45;;;;;;;;;;4958776;29;20647;-82
2021/12/28 02:00:59;;;;;;;4.10;3.38;;;;;;;;;;4958535;29;20189;-82
2021/12/28 02:03:31;;;;;;;3.47;3.20;;;;;;;;;;4958633;29;20189;-82
2021/12/28 02:06:00;;;;;;;3.47;3.17;;;;;;;;;;4958704;29;20192;-82
2021/12/28 02:08:27;;;;;;;3.22;2.97;;;;;;;;;;4958439;29;20209;-82
2021/12/28 02:10:57;;;;;;;3.45;3.15;;;;;;;;;;4958767;29;20189;-82
2021/12/28 02:13:25;;;;;;;3.35;3.13;;;;;;;;;;4958119;29;20196;-81
2021/12/28 02:15:56;;;;;;;3.10;2.90;;;;;;;;;;4958466;29;20232;-82
2021/12/28 02:18:25;;;;;;;3.20;3.00;;;;;;;;;;4958225;29;20260;-82
2021/12/28 02:20:56;;;;;;;3.47;3.17;;;;;;;;;;4958666;29;20193;-82
2021/12/28 02:23:24;;;;;;;3.13;2.92;;;;;;;;;;4957908;29;20189;-82
2021/12/28 02:25:53;;;;;;;4.35;3.95;;;;;;;;;;4957955;29;20233;-82
2021/12/28 02:28:20;;;;;;;3.65;3.35;;;;;;;;;;4958296;29;20197;-82
2021/12/28 02:30:50;;;;;;;3.90;3.38;;;;;;;;;;4958103;29;20547;-82
2021/12/28 02:33:19;;;;;;;4.47;4.07;;;;;;;;;;4958196;29;20586;-82
2021/12/28 02:35:46;;;;;;;5.28;4.30;;;;;;;;;;4958205;29;20233;-83
2021/12/28 02:38:15;;;;;;;4.82;4.25;;;;;;;;;;4938799;29;20569;-82
2021/12/28 02:40:45;;;;;;;4.85;4.45;;;;;;;;;;4938596;29;20654;-82
2021/12/28 02:43:16;;;;;;;4.80;4.43;;;;;;;;;;4939064;29;20202;-82
2021/12/28 02:45:51;;;;;;;5.43;4.93;;;;;;;;;;4946404;29;20574;-82
2021/12/28 02:48:18;;;;;;;5.38;4.88;;;;;;;;;;4958134;29;20189;-82
2021/12/28 02:50:49;;;;;;;4.63;4.20;;;;;;;;;;4957821;29;20193;-82
2021/12/28 02:53:20;;;;;;;3.80;3.47;;;;;;;;;;4957734;28;20213;-82
2021/12/28 02:55:49;;;;;;;4.43;4.03;;;;;;;;;;4957387;28;20236;-82
2021/12/28 02:58:30;;;;;;;5.72;5.15;;;;;;;;;;4957278;29;20648;-82
2021/12/28 03:01:06;;;;;;;6.38;5.88;;;;;;;;;;4958024;29;20211;-83
2021/12/28 03:03:35;;;;;;;5.65;5.10;;;;;;;;;;4957700;29;20211;-82
2021/12/28 03:06:05;;;;;;;5.65;4.57;;;;;;;;;;4957887;28;20574;-82
2021/12/28 03:08:36;;;;;;;4.90;4.40;;;;;;;;;;4956718;29;20185;-82
2021/12/28 03:11:06;;;;;;;4.90;4.50;;;;;;;;;;4957870;29;20201;-82
2021/12/28 03:13:37;;;;;;;4.57;4.18;;;;;;;;;;4957390;29;20182;-83
2021/12/28 03:16:05;;;;;;;5.10;4.53;;;;;;;;;;4957569;29;20224;-82
2021/12/28 03:18:33;;;;;;;4.95;4.55;;;;;;;;;;4957153;28;20572;-82
2021/12/28 03:21:01;;;;;;;4.20;3.90;;;;;;;;;;4957514;29;20188;-82
2021/12/28 03:23:29;;;;;;;4.07;3.78;;;;;;;;;;4956525;29;20193;-83
2021/12/28 03:25:58;;;;;;;5.70;4.30;;;;;;;;;;4956238;29;20224;-82
2021/12/28 03:28:30;;;;;;;4.50;4.10;;;;;;;;;;4957343;29;20196;-82
2021/12/28 03:31:00;;;;;;;4.75;4.32;;;;;;;;;;4957382;29;20197;-82
2021/12/28 03:33:31;;;;;;;5.18;4.68;;;;;;;;;;4957264;29;20190;-82
2021/12/28 03:35:59;;;;;;;5.05;4.55;;;;;;;;;;4957096;29;20209;-82
2021/12/28 03:38:27;;;;;;;6.05;5.50;;;;;;;;;;4957363;29;20190;-82
2021/12/28 03:40:57;;;;;;;4.85;4.35;;;;;;;;;;4957453;29;20189;-82
2021/12/28 03:43:25;;;;;;;5.43;4.93;;;;;;;;;;4948810;29;20206;-82
2021/12/28 03:45:52;;;;;;;4.45;4.05;;;;;;;;;;4937883;29;20232;-82
2021/12/28 03:48:20;;;;;;;4.43;4.03;;;;;;;;;;4937752;29;20217;-83
2021/12/28 03:50:48;;;;;;;5.88;5.28;;;;;;;;;;4956716;29;20553;-83
2021/12/28 03:53:15;;;;;;;5.28;4.85;;;;;;;;;;4957329;29;20197;-83
2021/12/28 03:55:43;;;;;;;5.97;5.47;;;;;;;;;;4956412;29;20221;-82
2021/12/28 03:58:12;;;;;;;4.80;4.40;;;;;;;;;;4956425;29;20416;-83
2021/12/28 04:00:45;;;;;;;5.35;4.93;;;;;;;;;;4956813;29;20564;-82
2021/12/28 04:03:13;;;;;;;4.53;4.13;;;;;;;;;;4957242;29;20189;-82
2021/12/28 04:05:41;;;;;;;4.68;4.28;;;;;;;;;;4956912;29;20273;-82
2021/12/28 04:08:09;;;;;;;5.80;5.30;;;;;;;;;;4957169;29;20575;-82
2021/12/28 04:10:50;;;;;;;6.07;5.55;;;;;;;;;;4956671;29;20209;-82
2021/12/28 04:13:20;;;;;;;5.65;5.05;;;;;;;;;;4957301;29;20185;-82
2021/12/28 04:15:48;;;;;;;5.15;4.65;;;;;;;;;;4957019;29;20228;-82
2021/12/28 04:18:17;;;;;;;4.13;3.72;;;;;;;;;;4956828;28;20211;-83
2021/12/28 04:20:45;;;;;;;4.22;3.83;;;;;;;;;;4956745;29;20209;-82
2021/12/28 04:23:12;;;;;;;5.00;4.53;;;;;;;;;;4956047;29;20659;-82
2021/12/28 04:25:41;;;;;;;4.82;4.30;;;;;;;;;;4956384;29;20610;-81
2021/12/28 04:28:09;;;;;;;4.55;4.15;;;;;;;;;;4955768;29;20193;-82
2021/12/28 04:30:38;;;;;;;5.60;5.03;;;;;;;;;;4956021;28;20205;-82
2021/12/28 04:33:06;;;;;;;3.97;3.58;;;;;;;;;;4956568;29;20209;-82
2021/12/28 04:35:33;;;;;;;5.75;4.40;;;;;;;;;;4956146;29;20224;-81
2021/12/28 04:38:01;;;;;;;4.40;4.00;;;;;;;;;;4951787;29;20224;-82
2021/12/28 04:40:28;;;;;;;3.97;3.63;;;;;;;;;;4937204;29;20241;-81
2021/12/28 04:42:56;;;;;;;3.33;3.13;;;;;;;;;;4937186;29;20581;-81
2021/12/28 04:45:23;;;;;;;2.95;2.75;;;;;;;;;;4936808;29;20288;-81
2021/12/28 04:47:52;;;;;;;3.13;2.92;;;;;;;;;;4936781;29;20269;-82
2021/12/28 04:50:20;;;;;;;2.17;2.08;;;;;;;;;;4937254;29;20715;-81
2021/12/28 04:52:47;;;;;;;2.67;2.47;;;;;;;;;;4936921;29;20698;-82
2021/12/28 04:55:18;;;;;;;3.15;2.90;;;;;;;;;;4978882;23;20324;-86
2021/12/28 04:57:46;;;;;;;3.22;3.03;;;;;;;;;;4934939;29;20261;-85
2021/12/28 05:00:18;;;;;;;4.65;4.25;;;;;;;;;;4934015;29;20190;-87
2021/12/28 05:02:47;;;;;;;4.32;3.92;;;;;;;;;;4945611;29;20249;-87
2021/12/28 05:05:17;;;;;;;5.10;4.70;;;;;;;;;;4947234;29;20229;-86
2021/12/28 05:07:44;;;;;;;4.63;4.22;;;;;;;;;;4935148;29;20375;-87
2021/12/28 05:10:12;;;;;;;5.50;4.82;;;;;;;;;;4934937;29;20675;-86
2021/12/28 05:12:40;;;;;;;4.57;4.10;;;;;;;;;;4934845;29;20233;-87
2021/12/28 05:15:10;;;;;;;4.65;4.25;;;;;;;;;;4934510;29;20711;-85
2021/12/28 05:17:38;;;;;;;5.03;4.38;;;;;;;;;;4934891;29;20225;-84
2021/12/28 05:20:07;;;;;;;4.88;4.32;;;;;;;;;;4935456;29;20214;-86
2021/12/28 05:22:36;;;;;;;4.22;3.60;;;;;;;;;;4935019;29;20683;-86
2021/12/28 05:25:05;;;;;;;4.57;4.05;;;;;;;;;;4935141;29;20722;-86
2021/12/28 05:27:32;;;;;;;4.00;3.60;;;;;;;;;;4935735;29;20190;-87
2021/12/28 05:30:01;;;;;;;5.57;4.10;;;;;;;;;;4936108;29;20217;-86
2021/12/28 05:32:51;;;;;;;3.88;3.38;;;;;;;;;;4938976;29;20198;-87
2021/12/28 05:35:19;;;;;;;4.90;3.33;;;;;;;;;;4934324;29;20225;-88
2021/12/28 05:37:48;;;;;;;3.03;2.72;;;;;;;;;;4938681;29;20206;-87
2021/12/28 05:40:16;;;;;;;3.17;2.90;;;;;;;;;;4938824;29;20190;-86
2021/12/28 05:42:47;;;;;;;2.88;2.67;;;;;;;;;;4938594;29;20198;-87
2021/12/28 05:45:15;;;;;;;6.20;4.20;;;;;;;;;;4938765;29;20217;-87
2021/12/28 05:47:46;;;;;;;5.70;3.70;;;;;;;;;;4938678;29;20670;-87
2021/12/28 05:50:14;;;;;;;3.58;3.28;;;;;;;;;;4938466;29;20206;-86
2021/12/28 05:52:41;;;;;;;2.85;2.58;;;;;;;;;;4938470;29;20194;-87
2021/12/28 05:55:11;;;;;;;2.58;2.38;;;;;;;;;;4938388;29;20312;-88
2021/12/28 05:57:39;;;;;;;3.13;2.83;;;;;;;;;;4939023;29;20228;-88
2021/12/28 06:00:11;;;;;;;3.42;2.92;;;;;;;;;;4939413;29;20562;-88
2021/12/28 06:02:38;;;;;;;4.40;3.75;;;;;;;;;;4937591;29;20204;-87
2021/12/28 06:05:07;;;;;;;3.58;3.20;;;;;;;;;;4938943;29;20233;-87
2021/12/28 06:07:36;;;;;;;3.55;3.13;;;;;;;;;;4938766;29;20191;-88
2021/12/28 06:10:05;;;;;;;4.35;3.08;;;;;;;;;;4938567;29;20206;-88
2021/12/28 06:12:35;;;;;;;6.07;3.38;;;;;;;;;;4937547;29;20652;-86
2021/12/28 06:15:02;;;;;;;5.03;3.35;;;;;;;;;;4938230;29;20238;-87
2021/12/28 06:17:30;;;;;;;5.05;3.53;;;;;;;;;;4937961;29;20581;-88
2021/12/28 06:19:57;;;;;;;4.05;3.50;;;;;;;;;;4937864;29;20301;-88
2021/12/28 06:22:25;;;;;;;5.35;4.05;;;;;;;;;;4937164;29;20190;-88
2021/12/28 06:24:52;;;;;;;4.22;3.35;;;;;;;;;;4937312;29;20230;-89
2021/12/28 06:27:26;;;;;;;3.28;2.97;;;;;;;;;;4937126;29;20194;-89
2021/12/28 06:30:10;;;;;;;4.70;3.17;;;;;;;;;;4937626;29;20277;-88
2021/12/28 06:32:38;;;;;;;3.83;3.50;;;;;;;;;;4937204;29;20640;-86
2021/12/28 06:35:07;;;;;;;3.72;3.35;;;;;;;;;;4938515;29;20316;-88
2021/12/28 06:37:36;;;;;;;4.63;2.90;;;;;;;;;;4939890;29;20205;-86
2021/12/28 06:40:04;;;;;;;3.80;3.42;;;;;;;;;;4940534;29;20684;-87
2021/12/28 06:42:32;;;;;;;4.60;3.53;;;;;;;;;;4938859;29;20548;-88
2021/12/28 06:45:01;;;;;;;2.58;2.30;;;;;;;;;;4939336;29;20684;-87
2021/12/28 06:47:28;;;;;;;2.90;2.70;;;;;;;;;;4938553;29;20186;-87
2021/12/28 06:49:57;;;;;;;2.88;2.67;;;;;;;;;;4939745;29;20648;-87
2021/12/28 06:52:24;;;;;;;2.60;2.40;;;;;;;;;;4939287;29;20274;-88
2021/12/28 06:54:52;;;;;;;3.05;2.35;;;;;;;;;;4940766;29;20222;-87
2021/12/28 06:57:21;;;;;;;4.07;2.22;;;;;;;;;;4939901;29;20217;-86
2021/12/28 06:59:49;;;;;;;3.20;2.90;;;;;;;;;;4936490;29;20194;-85
2021/12/28 07:02:19;;;;;;;2.40;2.15;;;;;;;;;;4933272;29;20218;-87
2021/12/28 07:04:47;;;;;;;3.97;2.95;;;;;;;;;;4935590;29;20194;-87
2021/12/28 07:07:17;;;;;;;2.88;2.33;;;;;;;;;;4935426;29;20565;-86
2021/12/28 07:09:47;;;;;;;2.63;2.15;;;;;;;;;;4935969;29;20217;-89
2021/12/28 07:12:14;;;;;;;3.03;2.75;;;;;;;;;;4935751;29;20210;-86
2021/12/28 07:14:42;;;;;;;3.15;2.75;;;;;;;;;;4935168;29;20537;-87
2021/12/28 07:17:10;;;;;;;3.83;2.90;;;;;;;;;;4936715;29;20209;-85
2021/12/28 07:19:39;;;;;;;2.45;2.25;;;;;;;;;;4935515;29;20220;-87
2021/12/28 07:22:08;;;;;;;3.17;2.97;;;;;;;;;;4935527;29;20248;-87
2021/12/28 07:24:36;;;;;;;9.27;2.90;;;;;;;;;;4934873;29;20216;-87
2021/12/28 07:27:04;;;;;;;3.22;2.83;;;;;;;;;;4935131;29;20182;-87
2021/12/28 07:29:33;;;;;;;2.20;1.98;;;;;;;;;;4934915;29;20186;-87
2021/12/28 07:32:02;;;;;;;2.15;1.90;;;;;;;;;;4934136;29;20182;-86
2021/12/28 07:34:31;;;;;;;2.42;2.10;;;;;;;;;;4934433;29;20209;-86
2021/12/28 07:37:00;;;;;;;2.35;2.08;;;;;;;;;;4934913;29;20213;-84
2021/12/28 07:39:28;;;;;;;2.92;2.33;;;;;;;;;;4934468;29;20240;-86
2021/12/28 07:41:55;;;;;;;2.90;2.10;;;;;;;;;;4934082;29;20197;-85
2021/12/28 07:44:24;;;;;;;2.78;2.47;;;;;;;;;;4934622;29;20205;-85
2021/12/28 07:46:52;;;;;;;6.57;3.55;;;;;;;;;;4934282;29;20305;-85
2021/12/28 07:49:19;;;;;;;3.08;2.65;;;;;;;;;;4934426;29;20198;-85
2021/12/28 07:51:47;;;;;;;3.08;2.78;;;;;;;;;;4934886;29;20209;-86
2021/12/28 07:54:16;;;;;;;4.05;2.70;;;;;;;;;;4933614;29;20852;-86
2021/12/28 07:56:44;;;;;;;2.20;2.00;;;;;;;;;;4933336;29;20273;-85
2021/12/28 07:59:11;;;;;;;5.40;2.83;;;;;;;;;;4933986;29;20213;-84
2021/12/28 08:01:39;;;;;;;3.17;2.50;;;;;;;;;;4933969;29;20190;-85
2021/12/28 08:04:07;;;;;;;3.45;2.50;;;;;;;;;;4933893;29;20201;-86
2021/12/28 08:06:34;;;;;;;3.08;2.58;;;;;;;;;;4934117;29;20228;-86
2021/12/28 08:09:02;;;;;;;4.57;2.70;;;;;;;;;;4933778;29;20197;-86
2021/12/28 08:11:31;;;;;;;3.22;2.30;;;;;;;;;;4932806;29;20659;-86
2021/12/28 08:13:59;;;;;;;6.10;3.42;;;;;;;;;;4933397;29;20205;-86
2021/12/28 08:16:26;;;;;;;3.58;2.55;;;;;;;;;;4933964;29;20222;-87
2021/12/28 08:18:55;;;;;;;3.97;3.20;;;;;;;;;;4933476;29;20220;-88
2021/12/28 08:21:23;;;;;;;7.18;3.42;;;;;;;;;;4933408;29;20675;-87
2021/12/28 08:23:50;;;;;;;4.75;3.47;;;;;;;;;;4933278;29;20194;-87
2021/12/28 08:26:18;;;;;;;4.85;2.80;;;;;;;;;;4933522;29;20692;-86
2021/12/28 08:28:47;;;;;;;3.63;3.20;;;;;;;;;;4927077;29;20198;-85
2021/12/28 08:31:14;;;;;;;5.57;3.22;;;;;;;;;;4930825;29;20216;-87
2021/12/28 08:33:46;;;;;;;4.25;3.17;;;;;;;;;;4932384;29;20925;-87
2021/12/28 08:36:14;;;;;;;6.43;3.10;;;;;;;;;;4932766;29;20257;-86
2021/12/28 08:38:43;;;;;;;3.70;2.60;;;;;;;;;;4932296;29;20249;-86
2021/12/28 08:41:12;;;;;;;2.97;2.60;;;;;;;;;;4932443;29;20695;-86
2021/12/28 08:43:40;;;;;;;2.47;2.20;;;;;;;;;;4932894;29;20264;-86
2021/12/28 08:46:10;;;;;;;2.70;2.00;;;;;;;;;;4932999;29;20301;-86
2021/12/28 08:48:39;;;;;;;3.75;2.97;;;;;;;;;;4933015;29;20185;-87
2021/12/28 08:51:09;;;;;;;2.70;2.35;;;;;;;;;;4933227;29;20205;-87
2021/12/28 08:53:36;;;;;;;2.90;2.70;;;;;;;;;;4933767;29;20188;-88
2021/12/28 08:56:05;;;;;;;3.22;2.60;;;;;;;;;;4933407;29;20244;-89
2021/12/28 08:58:36;;;;;;;2.53;2.20;;;;;;;;;;4916506;29;20217;-88
2021/12/28 09:01:06;;;;;;;2.50;2.30;;;;;;;;;;4914453;29;20314;-88
2021/12/28 09:03:36;;;;;;;3.17;2.53;;;;;;;;;;4915135;29;20203;-90
2021/12/28 09:06:05;;;;;;;2.58;2.38;;;;;;;;;;4918056;29;20268;-90
2021/12/28 09:08:33;;;;;;;2.65;2.45;;;;;;;;;;4919879;29;20210;-89
2021/12/28 09:11:01;;;;;;;2.60;1.73;;;;;;;;;;4923535;29;20202;-88
2021/12/28 09:13:30;;;;;;;3.78;2.42;;;;;;;;;;4937466;29;20215;-93
2021/12/28 09:15:59;;;;;;;2.85;2.08;;;;;;;;;;4918841;29;20230;-90
2021/12/28 09:18:26;;;;;;;2.60;2.35;;;;;;;;;;4917702;29;20186;-88
2021/12/28 09:20:56;;;;;;;2.65;2.03;;;;;;;;;;4917819;29;20225;-89
2021/12/28 09:23:33;;;;;;;4.35;2.80;;;;;;;;;;4917800;29;20234;-91
2021/12/28 09:26:02;;;;;;;5.55;2.30;;;;;;;;;;4935013;29;20225;-90
2021/12/28 09:28:30;;;;;;;2.70;2.50;;;;;;;;;;4938653;29;20289;-89
2021/12/28 09:31:04;;;;;;;2.70;2.05;;;;;;;;;;4937275;29;20303;-92
2021/12/28 09:33:32;;;;;;;2.30;1.98;;;;;;;;;;4938350;29;20580;-92
2021/12/28 09:36:12;;;;;;;2.22;2.03;;;;;;;;;;4938273;29;20228;-91
2021/12/28 09:38:57;;;;;;;3.70;2.22;;;;;;;;;;4941464;28;20581;-92
2021/12/28 09:41:27;;;;;;;2.63;2.10;;;;;;;;;;4938134;29;20218;-90
2021/12/28 09:44:00;;;;;;;2.65;2.10;;;;;;;;;;4938136;29;20273;-90
2021/12/28 09:46:29;;;;;;;2.78;2.25;;;;;;;;;;4939368;29;20317;-88
2021/12/28 09:48:57;;;;;;;2.20;2.00;;;;;;;;;;4938543;29;20993;-90
2021/12/28 09:51:29;;;;;;;2.40;1.73;;;;;;;;;;4938272;29;20204;-88
2021/12/28 09:54:00;;;;;;;1.75;1.65;;;;;;;;;;4937961;29;20197;-89
2021/12/28 09:56:37;;;;;;;1.67;1.58;;;;;;;;;;4937447;29;20622;-89
2021/12/28 09:59:13;;;;;;;2.30;2.10;;;;;;;;;;4925121;29;20257;-89
2021/12/28 10:01:42;;;;;;;2.35;2.15;;;;;;;;;;4936683;29;20217;-89
2021/12/28 10:04:10;;;;;;;2.55;2.22;;;;;;;;;;4932780;29;20204;-87
2021/12/28 10:06:42;;;;;;;1.77;1.63;;;;;;;;;;4943980;29;20707;-90
2021/12/28 10:09:21;;;;;;;3.28;2.28;;;;;;;;;;4955956;29;20197;-89
2021/12/28 10:12:27;;;;;;;2.97;2.78;;;;;;;;;;4937990;29;20545;-90
2021/12/28 10:15:01;;;;;;;2.30;2.10;;;;;;;;;;4918582;29;20238;-89
2021/12/28 10:17:33;;;;;;;4.03;2.10;;;;;;;;;;4947210;29;20571;-88
2021/12/28 10:20:09;;;;;;;1.95;1.60;;;;;;;;;;4956517;29;20221;-88
2021/12/28 10:22:42;;;;;;;2.30;2.10;;;;;;;;;;4956620;29;20676;-88
2021/12/28 10:25:37;;;;;;;1.48;1.38;;;;;;;;;;4957001;28;20276;-90
2021/12/28 10:28:17;;;;;;;1.73;1.63;;;;;;;;;;4938997;29;20213;-90
2021/12/28 10:30:48;;;;;;;2.20;2.00;;;;;;;;;;4937506;29;20577;-91
2021/12/28 10:33:20;;;;;;;2.58;1.90;;;;;;;;;;4938001;29;20650;-87
2021/12/28 10:35:59;;;;;;;1.92;1.83;;;;;;;;;;4937352;29;20637;-89
2021/12/28 10:38:44;;;;;;;1.55;1.45;;;;;;;;;;4918333;29;20186;-88
2021/12/28 10:41:17;;;;;;;1.65;1.55;;;;;;;;;;4933193;29;20209;-86
2021/12/28 10:43:49;;;;;;;1.92;1.70;;;;;;;;;;4937707;29;20194;-89
2021/12/28 10:46:19;;;;;;;2.42;2.03;;;;;;;;;;4937332;29;20237;-88
2021/12/28 10:48:50;;;;;;;3.28;1.83;;;;;;;;;;4937837;29;20285;-89
2021/12/28 10:51:22;;;;;;;3.08;2.38;;;;;;;;;;4950855;29;20204;-87
2021/12/28 10:54:02;;;;;;;2.22;1.88;;;;;;;;;;4956638;29;20197;-88
2021/12/28 10:56:31;;;;;;;1.92;1.67;;;;;;;;;;4977056;23;20275;-82
2021/12/28 10:58:59;;;;;;;2.75;1.90;;;;;;;;;;4938232;29;20586;-82
2021/12/28 11:01:28;;;;;;;2.58;2.38;;;;;;;;;;4954948;28;20217;-80
2021/12/28 11:03:58;;;;;;;2.13;1.80;;;;;;;;;;4955285;29;20201;-81
2021/12/28 11:06:28;;;;;;;1.88;1.73;;;;;;;;;;4954661;29;20693;-80
2021/12/28 11:09:01;;;;;;;2.35;2.15;;;;;;;;;;4954641;29;20192;-80
2021/12/28 11:11:30;;;;;;;1.98;1.67;;;;;;;;;;4950894;29;20190;-80
2021/12/28 11:14:00;;;;;;;2.13;1.95;;;;;;;;;;4948767;29;20644;-80
2021/12/28 11:16:29;;;;;;;2.35;1.73;;;;;;;;;;4937766;29;20213;-81
2021/12/28 11:18:59;;;;;;;1.70;1.60;;;;;;;;;;4951560;29;20196;-80
2021/12/28 11:21:28;;;;;;;1.58;1.33;;;;;;;;;;4957433;29;20209;-83
2021/12/28 11:24:04;;;;;;;1.65;1.50;;;;;;;;;;4956966;29;20566;-81
2021/12/28 11:26:37;;;;;;;2.10;1.30;;;;;;;;;;4956637;29;20222;-82
2021/12/28 11:29:07;;;;;;;1.63;1.52;;;;;;;;;;4956740;28;20244;-84
2021/12/28 11:31:37;;;;;;;1.63;1.40;;;;;;;;;;4957440;28;20205;-83
2021/12/28 11:34:12;;;;;;;1.65;1.55;;;;;;;;;;4956968;29;20178;-84
2021/12/28 11:36:44;;;;;;;1.58;1.48;;;;;;;;;;4957178;29;20706;-83
2021/12/28 11:39:18;;;;;;;1.73;1.63;;;;;;;;;;4956951;29;20655;-83
2021/12/28 11:41:47;;;;;;;1.98;1.50;;;;;;;;;;4956144;28;20239;-82
2021/12/28 11:44:14;;;;;;;1.55;1.45;;;;;;;;;;4956669;28;20228;-83
2021/12/28 11:46:42;;;;;;;1.60;1.50;;;;;;;;;;4955813;28;20236;-84
2021/12/28 11:49:12;;;;;;;1.10;1.10;;;;;;;;;;4956328;28;20668;-83
2021/12/28 11:51:41;;;;;;;1.65;1.55;;;;;;;;;;4956112;29;20731;-84
2021/12/28 11:54:14;;;;;;;1.10;1.02;;;;;;;;;;4955735;29;20211;-83
2021/12/28 11:56:47;;;;;;;1.10;1.10;;;;;;;;;;4955299;29;20655;-83
2021/12/28 11:59:19;;;;;;;1.63;1.00;;;;;;;;;;4955838;29;20216;-84
2021/12/28 12:01:57;;;;;;;1.52;0.88;;;;;;;;;;4955327;28;20593;-83
2021/12/28 12:04:49;;;;;;;1.27;1.17;;;;;;;;;;4956082;29;20311;-83
2021/12/28 12:07:31;;;;;;;1.08;1.02;;;;;;;;;;4955792;29;20510;-83
2021/12/28 12:10:34;;;;;;;3.22;1.55;;;;;;;;;;4956386;29;20201;-83
2021/12/28 12:13:20;;;;;;;1.48;1.38;;;;;;;;;;4956508;28;20287;-84
2021/12/28 12:15:53;;;;;;;0.95;0.95;;;;;;;;;;4956569;29;20228;-83
2021/12/28 12:18:25;;;;;;;1.20;1.20;;;;;;;;;;4956814;29;20201;-83
2021/12/28 12:20:58;;;;;;;2.65;1.50;;;;;;;;;;4956546;28;20235;-83
2021/12/28 12:23:30;;;;;;;1.48;1.25;;;;;;;;;;4956471;29;20228;-83
2021/12/28 12:26:06;;;;;;;0.90;0.90;;;;;;;;;;4956009;29;20221;-83
2021/12/28 12:28:47;;;;;;;1.02;1.02;;;;;;;;;;4955662;28;20210;-83
2021/12/28 12:31:29;;;;;;;1.08;0.98;;;;;;;;;;4956356;29;20200;-83
2021/12/28 12:33:58;;;;;;;4.78;1.20;;;;;;;;;;4956070;28;20679;-83
2021/12/28 12:36:35;;;;;;;1.02;1.00;;;;;;;;;;4956046;28;20224;-83
2021/12/28 12:39:03;;;;;;;0.70;0.70;;;;;;;;;;4955879;28;20236;-85
2021/12/28 12:41:47;;;;;;;0.65;0.65;;;;;;;;;;4956951;29;20225;-83
2021/12/28 12:44:18;;;;;;;0.80;0.73;;;;;;;;;;4956223;28;20219;-82
2021/12/28 12:46:47;;;;;;;0.80;0.80;;;;;;;;;;4956589;28;20213;-83
2021/12/28 12:49:29;;;;;;;0.73;0.73;;;;;;;;;;4956521;28;20205;-83
2021/12/28 12:52:02;;;;;;;1.00;1.00;;;;;;;;;;4956261;28;20216;-82
2021/12/28 12:54:44;;;;;;;1.08;1.08;;;;;;;;;;4956352;29;20209;-82
2021/12/28 12:57:26;;;;;;;1.33;1.23;;;;;;;;;;4956479;28;20279;-82
2021/12/28 13:00:01;;;;;;;1.00;1.00;;;;;;;;;;4956168;28;20208;-82
2021/12/28 13:02:34;;;;;;;1.00;1.00;;;;;;;;;;4956025;29;20224;-83
2021/12/28 13:05:14;;;;;;;1.10;1.00;;;;;;;;;;4956552;29;20205;-87
2021/12/28 13:07:42;;;;;;;1.00;1.00;;;;;;;;;;4956977;28;20223;-84
2021/12/28 13:10:15;;;;;;;0.80;0.80;;;;;;;;;;4957463;29;20211;-84
2021/12/28 13:12:47;;;;;;;1.20;1.10;;;;;;;;;;4957974;28;20205;-84
2021/12/28 13:15:16;;;;;;;1.20;1.10;;;;;;;;;;4957994;29;20216;-85
2021/12/28 13:17:47;;;;;;;1.13;1.10;;;;;;;;;;4958233;29;20582;-84
2021/12/28 13:20:18;;;;;;;0.93;0.93;;;;;;;;;;4957494;29;20644;-83
2021/12/28 13:22:51;;;;;;;0.90;0.90;;;;;;;;;;4957120;28;20227;-82
2021/12/28 13:25:26;;;;;;;0.90;0.90;;;;;;;;;;4957392;28;20211;-83
2021/12/28 13:27:56;;;;;;;0.90;0.90;;;;;;;;;;4957082;29;20208;-83
2021/12/28 13:30:27;;;;;;;1.17;1.17;;;;;;;;;;4957695;29;20209;-83
2021/12/28 13:32:56;;;;;;;1.48;1.40;;;;;;;;;;4957122;28;20205;-83
2021/12/28 13:35:26;;;;;;;1.10;1.00;;;;;;;;;;4957021;28;20240;-83
2021/12/28 13:37:57;;;;;;;0.90;0.90;;;;;;;;;;4957911;28;20213;-83
2021/12/28 13:40:28;;;;;;;0.90;0.90;;;;;;;;;;4957866;29;20216;-82
2021/12/28 13:43:13;;;;;;;0.90;0.90;;;;;;;;;;4957264;29;20229;-82
2021/12/28 13:45:43;;;;;;;1.10;1.10;;;;;;;;;;4957021;28;20221;-83
2021/12/28 13:48:21;;;;;;;0.80;0.80;;;;;;;;;;4957094;28;20201;-83
2021/12/28 13:50:53;;;;;;;1.00;1.00;;;;;;;;;;4956802;28;20201;-82
2021/12/28 13:53:22;;;;;;;0.95;0.95;;;;;;;;;;4960304;29;20205;-84
2021/12/28 13:55:53;;;;;;;1.08;1.08;;;;;;;;;;4961199;29;20237;-83
2021/12/28 13:58:26;;;;;;;1.55;0.90;;;;;;;;;;4961647;29;20193;-83
2021/12/28 14:00:56;;;;;;;0.80;0.80;;;;;;;;;;4961458;28;20268;-83
2021/12/28 14:03:24;;;;;;;0.95;0.80;;;;;;;;;;4961356;28;20225;-84
2021/12/28 14:05:52;;;;;;;0.93;0.93;;;;;;;;;;4961747;29;20221;-84
2021/12/28 14:08:22;;;;;;;1.10;1.10;;;;;;;;;;4961129;28;20216;-83
2021/12/28 14:10:53;;;;;;;1.80;1.48;;;;;;;;;;4961012;29;20273;-83
2021/12/28 14:13:23;;;;;;;1.10;1.10;;;;;;;;;;4961004;28;20208;-84
2021/12/28 14:16:01;;;;;;;1.00;1.00;;;;;;;;;;4960332;28;20236;-83
2021/12/28 14:18:40;;;;;;;1.08;1.08;;;;;;;;;;4960652;28;20209;-83
2021/12/28 14:21:19;;;;;;;1.15;1.08;;;;;;;;;;4960506;28;20682;-84
2021/12/28 14:23:57;;;;;;;1.15;1.10;;;;;;;;;;4961060;28;20299;-84
2021/12/28 14:26:28;;;;;;;1.00;1.00;;;;;;;;;;4960953;28;20227;-83
2021/12/28 14:29:09;;;;;;;0.98;0.98;;;;;;;;;;4960410;28;20209;-84
2021/12/28 14:31:41;;;;;;;1.63;1.52;;;;;;;;;;4960350;28;20217;-83
2021/12/28 14:34:10;;;;;;;1.10;1.10;;;;;;;;;;4960734;29;20205;-84
2021/12/28 14:36:40;;;;;;;1.50;1.40;;;;;;;;;;4960453;28;20301;-88
2021/12/28 14:39:17;;;;;;;1.10;1.10;;;;;;;;;;4960088;28;20205;-84
2021/12/28 14:41:47;;;;;;;1.00;1.00;;;;;;;;;;4960076;28;20204;-85
2021/12/28 14:44:22;;;;;;;0.90;0.90;;;;;;;;;;4960080;29;20211;-84
2021/12/28 14:46:52;;;;;;;0.90;0.90;;;;;;;;;;4960787;29;20268;-84
2021/12/28 14:49:28;;;;;;;0.80;0.80;;;;;;;;;;4959976;28;20200;-84
2021/12/28 14:52:14;;;;;;;0.80;0.80;;;;;;;;;;4960222;28;20204;-84
2021/12/28 14:55:01;;;;;;;0.90;0.90;;;;;;;;;;4960599;28;20209;-84
2021/12/28 14:57:32;;;;;;;1.00;1.00;;;;;;;;;;4960818;29;20324;-85
2021/12/28 15:00:06;;;;;;;1.13;1.13;;;;;;;;;;4960463;29;20216;-86
2021/12/28 15:02:34;;;;;;;1.10;1.10;;;;;;;;;;4958471;28;20220;-86
2021/12/28 15:05:03;;;;;;;1.55;1.45;;;;;;;;;;4957487;28;20303;-85
2021/12/28 15:07:31;;;;;;;1.00;1.00;;;;;;;;;;4957547;28;20225;-86